createdAt,value
2018-07-24T00:02:08.453Z,96116.23
2018-07-24T00:04:37.168Z,96113.92
2018-07-24T00:07:07.239Z,96114.93
2018-07-24T00:09:35.888Z,96115.80
2018-07-24T00:12:04.544Z,96109.86
2018-07-24T00:14:33.182Z,96101.70
2018-07-24T00:17:01.860Z,96107.03
2018-07-24T00:19:30.689Z,96109.06
2018-07-24T00:21:59.459Z,96105.77
2018-07-24T00:24:28.277Z,96106.97
2018-07-24T00:26:56.959Z,96105.41
2018-07-24T00:29:25.558Z,96103.42
2018-07-24T00:31:54.363Z,96100.77
2018-07-24T00:34:23.032Z,96103.42
2018-07-24T00:36:52.091Z,96099.98
2018-07-24T00:39:20.759Z,96099.31
2018-07-24T00:41:49.460Z,96101.99
2018-07-24T00:44:18.291Z,96107.38
2018-07-24T00:46:46.874Z,96105.63
2018-07-24T00:49:18.435Z,96102.89
2018-07-24T00:51:47.152Z,96094.95
2018-07-24T00:54:15.767Z,96105.23
2018-07-24T00:56:44.389Z,96100.21
2018-07-24T00:59:13.216Z,96092.47
2018-07-24T01:01:41.836Z,96092.66
2018-07-24T01:04:12.133Z,96092.92
2018-07-24T01:06:41.178Z,96088.30
2018-07-24T01:09:11.647Z,96090.31
2018-07-24T01:11:40.612Z,96090.95
2018-07-24T01:14:10.386Z,96083.98
2018-07-24T01:16:38.960Z,96083.73
2018-07-24T01:19:07.544Z,96082.61
2018-07-24T01:21:36.297Z,96079.27
2018-07-24T01:24:04.957Z,96077.44
2018-07-24T01:26:33.578Z,96077.88
2018-07-24T01:29:02.185Z,96076.24
2018-07-24T01:31:30.729Z,96069.95
2018-07-24T01:33:59.328Z,96075.22
2018-07-24T01:36:27.931Z,96075.65
2018-07-24T01:38:56.625Z,96074.89
2018-07-24T01:41:26.381Z,96076.56
2018-07-24T01:43:54.980Z,96075.26
2018-07-24T01:46:23.535Z,96075.56
2018-07-24T01:48:52.206Z,96069.39
2018-07-24T01:51:21.062Z,96078.37
2018-07-24T01:53:49.671Z,96077.23
2018-07-24T01:56:18.305Z,96074.08
2018-07-24T01:58:46.917Z,96069.20
2018-07-24T02:01:15.473Z,96071.56
2018-07-24T02:03:44.280Z,96069.91
2018-07-24T02:06:13.649Z,96077.97
2018-07-24T02:08:43.488Z,96074.43
2018-07-24T02:11:12.263Z,96072.10
2018-07-24T02:13:40.836Z,96076.84
2018-07-24T02:16:09.472Z,96078.25
2018-07-24T02:18:38.064Z,96072.67
2018-07-24T02:21:06.891Z,96071.78
2018-07-24T02:23:35.488Z,96071.52
2018-07-24T02:26:04.063Z,96066.27
2018-07-24T02:28:32.607Z,96074.94
2018-07-24T02:31:01.209Z,96079.73
2018-07-24T02:33:29.824Z,96080.47
2018-07-24T02:35:58.433Z,96080.32
2018-07-24T02:38:27.275Z,96075.68
2018-07-24T02:40:55.853Z,96070.84
2018-07-24T02:43:24.444Z,96076.85
2018-07-24T02:45:53.328Z,96074.39
2018-07-24T02:48:21.902Z,96075.45
2018-07-24T02:50:52.870Z,96080.39
2018-07-24T02:53:21.546Z,96075.69
2018-07-24T02:55:50.169Z,96077.56
2018-07-24T02:58:18.818Z,96083.55
2018-07-24T03:00:47.392Z,96079.32
2018-07-24T03:03:15.959Z,96084.60
2018-07-24T03:05:44.552Z,96088.28
2018-07-24T03:08:13.152Z,96087.41
2018-07-24T03:10:41.716Z,96089.44
2018-07-24T03:13:10.514Z,96082.72
2018-07-24T03:15:39.129Z,96088.67
2018-07-24T03:18:07.713Z,96090.35
2018-07-24T03:20:36.269Z,96084.56
2018-07-24T03:23:04.873Z,96089.05
2018-07-24T03:25:33.616Z,96090.44
2018-07-24T03:28:02.249Z,96086.41
2018-07-24T03:30:30.848Z,96081.79
2018-07-24T03:32:59.406Z,96086.00
2018-07-24T03:35:28.092Z,96085.94
2018-07-24T03:37:56.672Z,96074.23
2018-07-24T03:40:25.356Z,96077.25
2018-07-24T03:42:54.493Z,96083.14
2018-07-24T03:45:23.271Z,96076.30
2018-07-24T03:47:51.840Z,96076.48
2018-07-24T03:50:20.447Z,96072.25
2018-07-24T03:52:49.029Z,96073.82
2018-07-24T03:55:17.585Z,96077.98
2018-07-24T03:57:46.475Z,96080.71
2018-07-24T04:00:15.056Z,96084.28
2018-07-24T04:02:43.613Z,96089.02
2018-07-24T04:05:12.793Z,96085.77
2018-07-24T04:07:42.525Z,96086.42
2018-07-24T04:10:11.116Z,96082.37
2018-07-24T04:12:39.680Z,96090.52
2018-07-24T04:15:08.277Z,96084.63
2018-07-24T04:17:37.049Z,96083.48
2018-07-24T04:20:05.610Z,96084.91
2018-07-24T04:22:34.194Z,96089.34
2018-07-24T04:25:02.796Z,96090.94
2018-07-24T04:27:31.400Z,96093.23
2018-07-24T04:29:59.987Z,96096.44
2018-07-24T04:32:28.576Z,96101.40
2018-07-24T04:34:57.124Z,96097.13
2018-07-24T04:37:25.711Z,96095.09
2018-07-24T04:39:54.350Z,96100.41
2018-07-24T04:42:23.005Z,96096.94
2018-07-24T04:44:51.620Z,96083.86
2018-07-24T04:47:21.117Z,96095.56
2018-07-24T04:49:49.802Z,96088.14
2018-07-24T04:52:18.506Z,96089.67
2018-07-24T04:54:47.200Z,96097.49
2018-07-24T04:57:15.810Z,96096.83
2018-07-24T04:59:44.404Z,96093.56
2018-07-24T05:02:13.256Z,96097.08
2018-07-24T05:04:41.804Z,96101.27
2018-07-24T05:07:10.616Z,96096.30
2018-07-24T05:09:39.210Z,96097.76
2018-07-24T05:12:07.795Z,96095.05
2018-07-24T05:14:36.465Z,96094.59
2018-07-24T05:17:05.064Z,96095.02
2018-07-24T05:19:33.619Z,96089.84
2018-07-24T05:22:02.225Z,96093.80
2018-07-24T05:24:30.775Z,96090.08
2018-07-24T05:26:59.509Z,96094.11
2018-07-24T05:29:28.152Z,96094.19
2018-07-24T05:31:56.724Z,96096.75
2018-07-24T05:34:25.396Z,96094.22
2018-07-24T05:36:53.985Z,96099.32
2018-07-24T05:39:23.601Z,96099.54
2018-07-24T05:41:52.204Z,96106.48
2018-07-24T05:44:20.844Z,96102.90
2018-07-24T05:46:49.416Z,96105.27
2018-07-24T05:49:18.075Z,96102.15
2018-07-24T05:51:46.673Z,96094.28
2018-07-24T05:54:15.331Z,96100.23
2018-07-24T05:56:43.938Z,96099.56
2018-07-24T05:59:12.674Z,96102.56
2018-07-24T06:01:41.362Z,96099.37
2018-07-24T06:04:10.105Z,96105.52
2018-07-24T06:06:39.425Z,96098.20
2018-07-24T06:09:09.370Z,96096.77
2018-07-24T06:11:38.127Z,96094.36
2018-07-24T06:14:06.696Z,96095.17
2018-07-24T06:16:35.288Z,96092.00
2018-07-24T06:19:03.836Z,96094.94
2018-07-24T06:21:32.775Z,96093.11
2018-07-24T06:24:01.328Z,96091.86
2018-07-24T06:26:30.077Z,96092.30
2018-07-24T06:28:58.668Z,96099.83
2018-07-24T06:31:27.415Z,96100.99
2018-07-24T06:33:56.092Z,96091.30
2018-07-24T06:36:24.748Z,96100.75
2018-07-24T06:38:53.405Z,96092.77
2018-07-24T06:41:22.008Z,96087.72
2018-07-24T06:43:50.638Z,96086.52
2018-07-24T06:46:19.292Z,96080.61
2018-07-24T06:48:47.977Z,96084.41
2018-07-24T06:51:16.697Z,96078.27
2018-07-24T06:53:45.272Z,96076.04
2018-07-24T06:56:13.877Z,96076.66
2018-07-24T06:58:42.490Z,96078.81
2018-07-24T07:01:11.092Z,96083.77
2018-07-24T07:03:39.784Z,96077.26
2018-07-24T07:06:08.561Z,96076.00
2018-07-24T07:08:37.172Z,96076.12
2018-07-24T07:11:05.837Z,96068.07
2018-07-24T07:13:34.531Z,96068.39
2018-07-24T07:16:03.066Z,96065.57
2018-07-24T07:18:31.721Z,96065.48
2018-07-24T07:21:00.308Z,96073.34
2018-07-24T07:23:28.998Z,96066.17
2018-07-24T07:25:57.778Z,96068.19
2018-07-24T07:28:27.248Z,96070.30
2018-07-24T07:30:55.832Z,96066.29
2018-07-24T07:33:24.579Z,96070.91
2018-07-24T07:35:53.126Z,96068.49
2018-07-24T07:38:21.925Z,96060.87
2018-07-24T07:40:50.535Z,96056.56
2018-07-24T07:43:19.111Z,96057.20
2018-07-24T07:45:47.705Z,96054.41
2018-07-24T07:48:16.268Z,96047.06
2018-07-24T07:50:45.152Z,96054.02
2018-07-24T07:53:13.777Z,96047.27
2018-07-24T07:55:42.477Z,96049.30
2018-07-24T07:58:11.061Z,96050.68
2018-07-24T08:00:39.695Z,96045.12
2018-07-24T08:03:08.574Z,96049.84
2018-07-24T08:05:40.555Z,96046.50
2018-07-24T08:08:09.275Z,96047.04
2018-07-24T08:10:38.632Z,96044.40
2018-07-24T08:13:07.383Z,96042.59
2018-07-24T08:15:36.119Z,96043.20
2018-07-24T08:18:04.691Z,96037.13
2018-07-24T08:20:33.505Z,96034.31
2018-07-24T08:23:02.068Z,96028.20
2018-07-24T08:25:30.704Z,96025.09
2018-07-24T08:27:59.442Z,96022.13
2018-07-24T08:30:28.082Z,96023.95
2018-07-24T08:32:56.754Z,96023.58
2018-07-24T08:35:25.327Z,96025.91
2018-07-24T08:37:53.917Z,96023.47
2018-07-24T08:40:22.548Z,96017.84
2018-07-24T08:42:51.148Z,96022.52
2018-07-24T08:45:19.850Z,96026.91
2018-07-24T08:47:48.451Z,96026.99
2018-07-24T08:50:17.047Z,96027.73
2018-07-24T08:52:45.788Z,96023.95
2018-07-24T08:55:15.876Z,96016.91
2018-07-24T08:57:44.273Z,96023.20
2018-07-24T09:00:12.813Z,96014.87
2018-07-24T09:02:41.389Z,96010.94
2018-07-24T09:05:10.258Z,96016.33
2018-07-24T09:07:38.837Z,96009.91
2018-07-24T09:10:07.473Z,96011.58
2018-07-24T09:12:36.180Z,96012.76
2018-07-24T09:15:05.064Z,96014.49
2018-07-24T09:17:33.659Z,96016.31
2018-07-24T09:20:02.285Z,96010.23
2018-07-24T09:22:30.896Z,96011.22
2018-07-24T09:24:59.492Z,96007.41
2018-07-24T09:27:28.106Z,96001.95
2018-07-24T09:29:56.733Z,95994.80
2018-07-24T09:32:25.305Z,95995.51
2018-07-24T09:34:53.833Z,95998.28
2018-07-24T09:37:22.476Z,96000.56
2018-07-24T09:39:51.037Z,95995.73
2018-07-24T09:42:19.743Z,95986.28
2018-07-24T09:44:48.317Z,95992.02
2018-07-24T09:47:17.088Z,95992.50
2018-07-24T09:49:45.645Z,95994.45
2018-07-24T09:52:14.272Z,95991.03
2018-07-24T09:54:42.908Z,96002.38
2018-07-24T09:57:11.705Z,95997.48
2018-07-24T09:59:40.267Z,96002.06
2018-07-24T10:02:08.858Z,96007.91
2018-07-24T10:04:37.444Z,96003.10
2018-07-24T10:07:06.078Z,96004.27
2018-07-24T10:09:34.680Z,96002.33
2018-07-24T10:12:06.673Z,96008.91
2018-07-24T10:14:35.281Z,95999.84
2018-07-24T10:17:04.794Z,95996.97
2018-07-24T10:19:33.355Z,95995.11
2018-07-24T10:22:01.938Z,95991.25
2018-07-24T10:24:30.940Z,95989.42
2018-07-24T10:26:59.669Z,95978.48
2018-07-24T10:29:28.558Z,95975.42
2018-07-24T10:31:57.151Z,95980.38
2018-07-24T10:34:25.749Z,95973.05
2018-07-24T10:36:54.352Z,95965.55
2018-07-24T10:39:22.968Z,95973.30
2018-07-24T10:41:51.543Z,95974.94
2018-07-24T10:44:20.137Z,95967.27
2018-07-24T10:46:48.697Z,95978.48
2018-07-24T10:49:17.326Z,95972.62
2018-07-24T10:51:46.160Z,95960.16
2018-07-24T10:54:14.720Z,95961.23
2018-07-24T10:56:43.364Z,95965.20
2018-07-24T10:59:11.964Z,95961.25
2018-07-24T11:01:40.602Z,95951.87
2018-07-24T11:04:09.170Z,95958.11
2018-07-24T11:06:37.895Z,95955.78
2018-07-24T11:09:09.017Z,95962.95
2018-07-24T11:11:37.722Z,95959.08
2018-07-24T11:14:06.447Z,95953.32
2018-07-24T11:16:35.065Z,95942.25
2018-07-24T11:19:03.740Z,95940.34
2018-07-24T11:21:32.423Z,95937.67
2018-07-24T11:24:01.094Z,95949.77
2018-07-24T11:26:29.705Z,95942.13
2018-07-24T11:28:58.287Z,95946.44
2018-07-24T11:31:26.949Z,95946.73
2018-07-24T11:33:55.607Z,95946.73
2018-07-24T11:36:24.438Z,95937.19
2018-07-24T11:38:53.033Z,95933.75
2018-07-24T11:41:21.640Z,95929.47
2018-07-24T11:43:50.179Z,95929.38
2018-07-24T11:46:18.819Z,95936.69
2018-07-24T11:48:47.457Z,95939.95
2018-07-24T11:51:16.069Z,95929.63
2018-07-24T11:53:44.607Z,95922.82
2018-07-24T11:56:13.204Z,95925.25
2018-07-24T11:58:41.892Z,95926.48
2018-07-24T12:01:10.473Z,95925.33
2018-07-24T12:03:39.154Z,95920.53
2018-07-24T12:06:07.721Z,95914.09
2018-07-24T12:08:36.277Z,95914.81
2018-07-24T12:11:06.514Z,95911.89
2018-07-24T12:13:38.370Z,95910.87
2018-07-24T12:16:07.012Z,95905.00
2018-07-24T12:18:36.387Z,95903.25
2018-07-24T12:21:05.041Z,95909.05
2018-07-24T12:23:33.617Z,95905.30
2018-07-24T12:26:02.159Z,95903.44
2018-07-24T12:28:30.753Z,95909.16
2018-07-24T12:30:59.343Z,95909.30
2018-07-24T12:33:28.027Z,95910.53
2018-07-24T12:35:56.655Z,95909.67
2018-07-24T12:38:25.240Z,95907.02
2018-07-24T12:40:53.841Z,95904.06
2018-07-24T12:43:22.438Z,95900.32
2018-07-24T12:45:51.032Z,95896.98
2018-07-24T12:48:19.631Z,95884.48
2018-07-24T12:50:48.151Z,95887.38
2018-07-24T12:53:16.708Z,95883.96
2018-07-24T12:55:45.441Z,95888.84
2018-07-24T12:58:14.025Z,95887.84
2018-07-24T13:00:42.578Z,95893.29
2018-07-24T13:03:11.231Z,95887.13
2018-07-24T13:05:39.782Z,95881.47
2018-07-24T13:08:08.360Z,95878.11
2018-07-24T13:10:37.004Z,95878.14
2018-07-24T13:13:05.632Z,95883.06
2018-07-24T13:15:34.415Z,95873.83
2018-07-24T13:18:03.136Z,95875.92
2018-07-24T13:20:31.820Z,95881.38
2018-07-24T13:23:00.432Z,95877.70
2018-07-24T13:25:29.505Z,95871.61
2018-07-24T13:27:58.108Z,95876.74
2018-07-24T13:30:26.695Z,95869.09
2018-07-24T13:32:55.307Z,95872.10
2018-07-24T13:35:24.045Z,95867.89
2018-07-24T13:37:52.591Z,95864.49
2018-07-24T13:40:21.491Z,95857.52
2018-07-24T13:42:50.084Z,95856.37
2018-07-24T13:45:18.622Z,95857.48
2018-07-24T13:47:47.156Z,95854.52
2018-07-24T13:50:15.836Z,95854.56
2018-07-24T13:52:44.376Z,95853.19
2018-07-24T13:55:13.121Z,95843.83
2018-07-24T13:57:41.807Z,95850.16
2018-07-24T14:00:10.398Z,95850.19
2018-07-24T14:02:39.083Z,95850.13
2018-07-24T14:05:07.900Z,95852.64
2018-07-24T14:07:37.257Z,95852.77
2018-07-24T14:10:07.016Z,95846.84
2018-07-24T14:12:35.663Z,95842.70
2018-07-24T14:15:04.315Z,95846.89
2018-07-24T14:17:32.876Z,95856.17
2018-07-24T14:20:01.512Z,95848.97
2018-07-24T14:22:30.071Z,95849.90
2018-07-24T14:24:58.651Z,95852.84
2018-07-24T14:27:27.220Z,95852.17
2018-07-24T14:29:55.772Z,95852.29
2018-07-24T14:32:24.507Z,95848.97
2018-07-24T14:34:53.108Z,95849.42
2018-07-24T14:37:21.689Z,95846.19
2018-07-24T14:39:50.231Z,95842.23
2018-07-24T14:42:18.816Z,95839.10
2018-07-24T14:44:47.351Z,95837.80
2018-07-24T14:47:16.333Z,95835.44
2018-07-24T14:49:44.936Z,95838.25
2018-07-24T14:52:13.487Z,95837.94
2018-07-24T14:54:42.421Z,95834.52
2018-07-24T14:57:11.229Z,95832.00
2018-07-24T14:59:39.869Z,95828.05
2018-07-24T15:02:08.488Z,95824.59
2018-07-24T15:04:37.233Z,95827.94
2018-07-24T15:07:05.744Z,95823.63
2018-07-24T15:09:34.381Z,95821.74
2018-07-24T15:12:02.954Z,95819.98
2018-07-24T15:14:31.532Z,95814.88
2018-07-24T15:17:00.131Z,95809.91
2018-07-24T15:19:28.712Z,95819.81
2018-07-24T15:21:57.301Z,95812.42
2018-07-24T15:24:25.850Z,95818.41
2018-07-24T15:26:54.411Z,95808.62
2018-07-24T15:29:23.109Z,95807.31
2018-07-24T15:31:51.722Z,95807.93
2018-07-24T15:34:20.791Z,95809.94
2018-07-24T15:36:49.301Z,95810.32
2018-07-24T15:39:18.165Z,95806.45
2018-07-24T15:41:46.791Z,95807.49
2018-07-24T15:44:15.332Z,95805.53
2018-07-24T15:46:44.022Z,95803.06
2018-07-24T15:49:12.673Z,95805.28
2018-07-24T15:51:41.318Z,95805.54
2018-07-24T15:54:09.883Z,95808.77
2018-07-24T15:56:38.437Z,95810.05
2018-07-24T15:59:07.109Z,95806.08
2018-07-24T16:01:35.708Z,95808.74
2018-07-24T16:04:04.355Z,95799.23
2018-07-24T16:06:32.946Z,95801.06
2018-07-24T16:09:01.499Z,95796.80
2018-07-24T16:11:31.307Z,95795.11
2018-07-24T16:13:59.928Z,95798.10
2018-07-24T16:16:28.579Z,95796.95
2018-07-24T16:18:57.252Z,95799.18
2018-07-24T16:21:25.838Z,95796.88
2018-07-24T16:23:54.463Z,95802.75
2018-07-24T16:26:23.078Z,95796.48
2018-07-24T16:28:51.691Z,95789.20
2018-07-24T16:31:20.442Z,95787.95
2018-07-24T16:33:48.989Z,95795.59
2018-07-24T16:36:17.563Z,95793.16
2018-07-24T16:38:46.172Z,95797.08
2018-07-24T16:41:14.880Z,95788.32
2018-07-24T16:43:43.460Z,95787.38
2018-07-24T16:46:12.075Z,95787.97
2018-07-24T16:48:40.659Z,95796.17
2018-07-24T16:51:09.253Z,95791.31
2018-07-24T16:53:37.890Z,95794.34
2018-07-24T16:56:06.699Z,95794.39
2018-07-24T16:58:35.356Z,95789.66
2018-07-24T17:01:03.952Z,95795.89
2018-07-24T17:03:32.544Z,95794.86
2018-07-24T17:06:01.160Z,95792.41
2018-07-24T17:08:29.749Z,95794.15
2018-07-24T17:10:58.341Z,95793.54
2018-07-24T17:13:26.985Z,95801.47
2018-07-24T17:15:55.557Z,95802.48
2018-07-24T17:18:24.106Z,95795.31
2018-07-24T17:20:52.896Z,95800.35
2018-07-24T17:23:21.480Z,95799.94
2018-07-24T17:25:50.347Z,95797.23
2018-07-24T17:28:19.072Z,95794.16
2018-07-24T17:30:47.624Z,95797.27
2018-07-24T17:33:16.226Z,95801.37
2018-07-24T17:35:44.915Z,95799.33
2018-07-24T17:38:13.455Z,95806.46
2018-07-24T17:40:42.079Z,95803.06
2018-07-24T17:43:10.637Z,95808.80
2018-07-24T17:45:39.355Z,95808.83
2018-07-24T17:48:08.422Z,95806.59
2018-07-24T17:50:37.117Z,95804.48
2018-07-24T17:53:05.731Z,95806.89
2018-07-24T17:55:34.367Z,95805.62
2018-07-24T17:58:02.934Z,95811.22
2018-07-24T18:00:31.628Z,95802.97
2018-07-24T18:03:00.177Z,95804.12
2018-07-24T18:05:28.824Z,95811.38
2018-07-24T18:07:57.425Z,95814.41
2018-07-24T18:10:26.063Z,95811.73
2018-07-24T18:12:54.679Z,95816.36
2018-07-24T18:15:23.359Z,95816.22
2018-07-24T18:17:51.896Z,95819.66
2018-07-24T18:20:20.517Z,95818.98
2018-07-24T18:22:49.152Z,95819.75
2018-07-24T18:25:17.720Z,95822.24
2018-07-24T18:27:46.317Z,95821.34
2018-07-24T18:30:14.880Z,95825.83
2018-07-24T18:32:43.406Z,95826.77
2018-07-24T18:35:12.489Z,95829.98
2018-07-24T18:37:41.126Z,95833.84
2018-07-24T18:40:09.721Z,95834.97
2018-07-24T18:42:38.353Z,95836.30
2018-07-24T18:45:06.985Z,95841.54
2018-07-24T18:47:35.565Z,95838.93
2018-07-24T18:50:04.232Z,95847.92
2018-07-24T18:52:32.791Z,95851.39
2018-07-24T18:55:01.416Z,95852.18
2018-07-24T18:57:30.087Z,95860.86
2018-07-24T18:59:58.775Z,95855.66
2018-07-24T19:02:27.396Z,95864.28
2018-07-24T19:04:55.964Z,95862.08
2018-07-24T19:07:24.643Z,95868.20
2018-07-24T19:09:53.247Z,95872.55
2018-07-24T19:12:21.812Z,95872.44
2018-07-24T19:14:50.388Z,95877.36
2018-07-24T19:17:19.115Z,95879.69
2018-07-24T19:19:47.616Z,95876.56
2018-07-24T19:22:16.232Z,95884.02
2018-07-24T19:24:44.828Z,95885.83
2018-07-24T19:27:13.526Z,95889.95
2018-07-24T19:29:42.159Z,95890.16
2018-07-24T19:32:10.883Z,95891.64
2018-07-24T19:34:39.511Z,95887.43
2018-07-24T19:37:08.131Z,95888.13
2018-07-24T19:39:36.876Z,95882.20
2018-07-24T19:42:05.532Z,95885.84
2018-07-24T19:44:34.237Z,95888.82
2018-07-24T19:47:02.831Z,95882.41
2018-07-24T19:49:31.583Z,95886.53
2018-07-24T19:52:00.065Z,95888.62
2018-07-24T19:54:28.597Z,95882.53
2018-07-24T19:56:57.226Z,95885.36
2018-07-24T19:59:25.812Z,95885.10
2018-07-24T20:01:54.366Z,95888.57
2018-07-24T20:04:23.264Z,95887.42
2018-07-24T20:06:52.647Z,95890.36
2018-07-24T20:09:21.224Z,95892.28
2018-07-24T20:11:49.769Z,95893.09
2018-07-24T20:14:18.392Z,95893.59
2018-07-24T20:16:47.020Z,95895.51
2018-07-24T20:19:15.687Z,95895.19
2018-07-24T20:21:44.269Z,95896.01
2018-07-24T20:24:12.876Z,95896.73
2018-07-24T20:26:41.582Z,95888.66
2018-07-24T20:29:10.339Z,95891.39
2018-07-24T20:31:39.010Z,95889.06
2018-07-24T20:34:07.711Z,95889.17
2018-07-24T20:36:36.323Z,95897.70
2018-07-24T20:39:08.928Z,95891.95
2018-07-24T20:41:37.621Z,95890.97
2018-07-24T20:44:06.176Z,95892.43
2018-07-24T20:46:34.729Z,95889.95
2018-07-24T20:49:03.672Z,95885.59
2018-07-24T20:51:33.155Z,95888.87
2018-07-24T20:54:01.882Z,95890.25
2018-07-24T20:56:30.508Z,95890.54
2018-07-24T20:58:59.200Z,95890.32
2018-07-24T21:01:27.787Z,95888.14
2018-07-24T21:03:56.808Z,95891.63
2018-07-24T21:06:25.351Z,95895.69
2018-07-24T21:08:53.939Z,95892.28
2018-07-24T21:11:22.824Z,95890.89
2018-07-24T21:13:51.392Z,95891.03
2018-07-24T21:16:20.148Z,95893.11
2018-07-24T21:18:49.084Z,95893.84
2018-07-24T21:21:18.523Z,95897.42
2018-07-24T21:23:47.098Z,95894.38
2018-07-24T21:26:15.800Z,95890.32
2018-07-24T21:28:44.378Z,95886.73
2018-07-24T21:31:13.266Z,95886.51
2018-07-24T21:33:41.836Z,95892.00
2018-07-24T21:36:10.530Z,95893.11
2018-07-24T21:38:39.349Z,95889.66
2018-07-24T21:41:08.293Z,95885.03
2018-07-24T21:43:36.892Z,95889.67
2018-07-24T21:46:05.425Z,95892.97
2018-07-24T21:48:34.114Z,95890.36
2018-07-24T21:51:02.816Z,95886.83
2018-07-24T21:53:31.400Z,95888.30
2018-07-24T21:55:59.991Z,95889.23
2018-07-24T21:58:28.595Z,95883.72
2018-07-24T22:01:02.485Z,95887.02
2018-07-24T22:03:31.127Z,95884.19
2018-07-24T22:06:00.486Z,95882.29
2018-07-24T22:08:30.299Z,95883.05
2018-07-24T22:10:58.909Z,95893.23
2018-07-24T22:13:27.576Z,95886.02
2018-07-24T22:15:56.290Z,95884.78
2018-07-24T22:18:24.921Z,95894.59
2018-07-24T22:20:53.496Z,95895.03
2018-07-24T22:23:22.212Z,95889.86
2018-07-24T22:25:50.756Z,95892.86
2018-07-24T22:28:19.365Z,95889.84
2018-07-24T22:30:48.006Z,95891.14
2018-07-24T22:33:17.967Z,95892.71
2018-07-24T22:35:46.561Z,95889.45
2018-07-24T22:38:15.131Z,95889.98
2018-07-24T22:40:43.815Z,95891.87
2018-07-24T22:43:13.288Z,95896.78
2018-07-24T22:45:42.068Z,95890.59
2018-07-24T22:48:10.644Z,95897.97
2018-07-24T22:50:39.231Z,95891.64
2018-07-24T22:53:07.853Z,95889.59
2018-07-24T22:55:36.401Z,95893.00
2018-07-24T22:58:05.019Z,95894.25
2018-07-24T23:00:33.691Z,95895.66
2018-07-24T23:03:02.288Z,95896.23
2018-07-24T23:05:31.152Z,95897.69
2018-07-24T23:07:59.732Z,95889.91
2018-07-24T23:10:33.493Z,95891.50
2018-07-24T23:13:03.902Z,95894.59
2018-07-24T23:15:32.743Z,95895.81
2018-07-24T23:18:01.255Z,95894.49
2018-07-24T23:20:29.854Z,95895.55
2018-07-24T23:22:58.420Z,95896.72
2018-07-24T23:25:27.026Z,95899.46
2018-07-24T23:27:55.569Z,95899.59
2018-07-24T23:30:24.347Z,95900.14
2018-07-24T23:32:52.911Z,95896.23
2018-07-24T23:35:21.464Z,95888.67
2018-07-24T23:37:50.284Z,95892.87
2018-07-24T23:40:18.852Z,95889.65
2018-07-24T23:42:47.409Z,95884.20
2018-07-24T23:45:15.944Z,95891.27
2018-07-24T23:47:44.577Z,95887.22
2018-07-24T23:50:13.140Z,95886.72
2018-07-24T23:52:41.686Z,95890.32
2018-07-24T23:55:10.371Z,95890.63
2018-07-24T23:57:38.901Z,95891.31
